sensor_id;sensor_type;location;lat;lon;timestamp;pressure;altitude;pressure_sealevel;temperature;humidity
74722;BME280;63470;49.826;6.740;2023-06-04T00:00:32;100385.62;;;13.47;43.68
74722;BME280;63470;49.826;6.740;2023-06-04T00:03:05;100388.13;;;13.43;43.70
74722;BME280;63470;49.826;6.740;2023-06-04T00:05:33;100386.38;;;13.36;43.74
74722;BME280;63470;49.826;6.740;2023-06-04T00:08:03;100385.70;;;13.30;43.77
74722;BME280;63470;49.826;6.740;2023-06-04T00:10:37;100385.23;;;13.23;43.80
74722;BME280;63470;49.826;6.740;2023-06-04T00:13:04;100387.31;;;13.19;43.81
74722;BME280;63470;49.826;6.740;2023-06-04T00:15:37;100381.34;;;13.12;43.83
74722;BME280;63470;49.826;6.740;2023-06-04T00:18:08;100381.07;;;13.06;43.86
74722;BME280;63470;49.826;6.740;2023-06-04T00:20:36;100379.89;;;13.02;43.87
74722;BME280;63470;49.826;6.740;2023-06-04T00:23:12;100386.03;;;12.98;43.90
74722;BME280;63470;49.826;6.740;2023-06-04T00:25:38;100385.84;;;12.92;43.97
74722;BME280;63470;49.826;6.740;2023-06-04T00:28:10;100381.05;;;12.89;44.00
74722;BME280;63470;49.826;6.740;2023-06-04T00:30:41;100377.45;;;12.82;44.00
74722;BME280;63470;49.826;6.740;2023-06-04T00:33:09;100375.61;;;12.76;44.00
74722;BME280;63470;49.826;6.740;2023-06-04T00:35:43;100378.32;;;12.69;44.04
74722;BME280;63470;49.826;6.740;2023-06-04T00:38:11;100381.22;;;12.66;44.00
74722;BME280;63470;49.826;6.740;2023-06-04T00:40:40;100386.31;;;12.60;44.02
74722;BME280;63470;49.826;6.740;2023-06-04T00:43:11;100391.55;;;12.51;44.05
74722;BME280;63470;49.826;6.740;2023-06-04T00:45:43;100387.62;;;12.41;44.14
74722;BME280;63470;49.826;6.740;2023-06-04T00:48:12;100389.48;;;12.35;44.15
74722;BME280;63470;49.826;6.740;2023-06-04T00:50:45;100387.95;;;12.29;44.17
74722;BME280;63470;49.826;6.740;2023-06-04T00:53:13;100387.88;;;12.20;44.24
74722;BME280;63470;49.826;6.740;2023-06-04T00:55:43;100383.82;;;12.13;44.30
74722;BME280;63470;49.826;6.740;2023-06-04T00:58:18;100387.91;;;12.10;44.29
74722;BME280;63470;49.826;6.740;2023-06-04T01:00:48;100385.77;;;12.10;44.26
74722;BME280;63470;49.826;6.740;2023-06-04T01:03:18;100382.16;;;12.09;44.21
74722;BME280;63470;49.826;6.740;2023-06-04T01:05:57;100384.27;;;12.10;44.17
74722;BME280;63470;49.826;6.740;2023-06-04T01:08:16;100381.83;;;12.08;44.13
74722;BME280;63470;49.826;6.740;2023-06-04T01:10:55;100385.27;;;12.10;44.09
74722;BME280;63470;49.826;6.740;2023-06-04T01:13:16;100385.67;;;12.12;44.04
74722;BME280;63470;49.826;6.740;2023-06-04T01:15:47;100385.30;;;12.14;43.94
74722;BME280;63470;49.826;6.740;2023-06-04T01:18:31;100386.55;;;12.13;43.93
74722;BME280;63470;49.826;6.740;2023-06-04T01:20:48;100385.34;;;12.10;43.99
74722;BME280;63470;49.826;6.740;2023-06-04T01:25:51;100386.92;;;12.06;44.01
74722;BME280;63470;49.826;6.740;2023-06-04T01:28:24;100387.36;;;11.96;44.11
74722;BME280;63470;49.826;6.740;2023-06-04T01:30:52;100385.06;;;11.83;44.21
74722;BME280;63470;49.826;6.740;2023-06-04T01:33:22;100386.27;;;11.66;44.36
74722;BME280;63470;49.826;6.740;2023-06-04T01:35:51;100386.64;;;11.47;44.51
74722;BME280;63470;49.826;6.740;2023-06-04T01:38:22;100388.17;;;11.35;44.62
74722;BME280;63470;49.826;6.740;2023-06-04T01:40:59;100389.27;;;11.25;44.69
74722;BME280;63470;49.826;6.740;2023-06-04T01:43:22;100385.12;;;11.20;44.71
74722;BME280;63470;49.826;6.740;2023-06-04T01:45:55;100387.09;;;11.17;44.66
74722;BME280;63470;49.826;6.740;2023-06-04T01:48:28;100389.20;;;11.18;44.57
74722;BME280;63470;49.826;6.740;2023-06-04T01:50:53;100387.27;;;11.21;44.48
74722;BME280;63470;49.826;6.740;2023-06-04T01:53:26;100383.41;;;11.25;44.38
74722;BME280;63470;49.826;6.740;2023-06-04T01:55:57;100378.90;;;11.21;44.37
74722;BME280;63470;49.826;6.740;2023-06-04T01:58:27;100376.75;;;11.12;44.46
74722;BME280;63470;49.826;6.740;2023-06-04T02:00:56;100379.90;;;11.06;44.51
74722;BME280;63470;49.826;6.740;2023-06-04T02:03:26;100381.34;;;11.03;44.48
74722;BME280;63470;49.826;6.740;2023-06-04T02:05:57;100386.78;;;11.05;44.40
74722;BME280;63470;49.826;6.740;2023-06-04T02:08:30;100386.02;;;11.01;44.38
74722;BME280;63470;49.826;6.740;2023-06-04T02:10:58;100382.03;;;11.02;44.36
74722;BME280;63470;49.826;6.740;2023-06-04T02:13:30;100377.84;;;11.05;44.33
74722;BME280;63470;49.826;6.740;2023-06-04T02:15:59;100378.02;;;11.10;44.26
74722;BME280;63470;49.826;6.740;2023-06-04T02:18:29;100377.58;;;11.13;44.24
74722;BME280;63470;49.826;6.740;2023-06-04T02:21:00;100377.22;;;11.14;44.23
74722;BME280;63470;49.826;6.740;2023-06-04T02:23:32;100378.17;;;11.15;44.19
74722;BME280;63470;49.826;6.740;2023-06-04T02:26:01;100374.77;;;11.22;44.12
74722;BME280;63470;49.826;6.740;2023-06-04T02:28:31;100381.76;;;11.34;43.99
74722;BME280;63470;49.826;6.740;2023-06-04T02:31:02;100379.80;;;11.43;43.87
74722;BME280;63470;49.826;6.740;2023-06-04T02:33:32;100384.41;;;11.48;43.87
74722;BME280;63470;49.826;6.740;2023-06-04T02:36:03;100386.02;;;11.47;43.95
74722;BME280;63470;49.826;6.740;2023-06-04T02:38:34;100387.34;;;11.47;43.98
74722;BME280;63470;49.826;6.740;2023-06-04T02:41:03;100384.13;;;11.41;44.09
74722;BME280;63470;49.826;6.740;2023-06-04T02:43:34;100384.45;;;11.37;44.19
74722;BME280;63470;49.826;6.740;2023-06-04T02:46:09;100386.48;;;11.37;44.21
74722;BME280;63470;49.826;6.740;2023-06-04T02:48:38;100385.51;;;11.32;44.26
74722;BME280;63470;49.826;6.740;2023-06-04T02:51:08;100385.31;;;11.25;44.35
74722;BME280;63470;49.826;6.740;2023-06-04T02:53:40;100387.75;;;11.16;44.44
74722;BME280;63470;49.826;6.740;2023-06-04T02:56:06;100386.03;;;11.10;44.50
74722;BME280;63470;49.826;6.740;2023-06-04T02:58:53;100384.98;;;11.08;44.50
74722;BME280;63470;49.826;6.740;2023-06-04T03:01:07;100383.55;;;11.09;44.46
74722;BME280;63470;49.826;6.740;2023-06-04T03:03:37;100387.81;;;11.12;44.39
74722;BME280;63470;49.826;6.740;2023-06-04T03:06:07;100384.81;;;11.13;44.38
74722;BME280;63470;49.826;6.740;2023-06-04T03:08:37;100385.89;;;11.13;44.39
74722;BME280;63470;49.826;6.740;2023-06-04T03:11:08;100387.95;;;11.14;44.39
74722;BME280;63470;49.826;6.740;2023-06-04T03:13:39;100389.27;;;11.15;44.39
74722;BME280;63470;49.826;6.740;2023-06-04T03:16:12;100389.36;;;11.14;44.36
74722;BME280;63470;49.826;6.740;2023-06-04T03:18:41;100391.50;;;11.13;44.35
74722;BME280;63470;49.826;6.740;2023-06-04T03:21:12;100392.98;;;11.13;44.32
74722;BME280;63470;49.826;6.740;2023-06-04T03:23:41;100390.09;;;11.14;44.28
74722;BME280;63470;49.826;6.740;2023-06-04T03:26:13;100389.45;;;11.18;44.21
74722;BME280;63470;49.826;6.740;2023-06-04T03:28:45;100389.26;;;11.20;44.16
74722;BME280;63470;49.826;6.740;2023-06-04T03:31:13;100389.94;;;11.24;44.11
74722;BME280;63470;49.826;6.740;2023-06-04T03:33:43;100384.28;;;11.25;44.11
74722;BME280;63470;49.826;6.740;2023-06-04T03:36:14;100388.75;;;11.25;44.17
74722;BME280;63470;49.826;6.740;2023-06-04T03:38:49;100386.17;;;11.23;44.21
74722;BME280;63470;49.826;6.740;2023-06-04T03:41:15;100392.09;;;11.18;44.28
74722;BME280;63470;49.826;6.740;2023-06-04T03:43:45;100392.85;;;11.12;44.36
74722;BME280;63470;49.826;6.740;2023-06-04T03:46:21;100390.39;;;11.06;44.44
74722;BME280;63470;49.826;6.740;2023-06-04T03:48:49;100392.12;;;11.06;44.42
74722;BME280;63470;49.826;6.740;2023-06-04T03:51:22;100392.97;;;11.10;44.37
74722;BME280;63470;49.826;6.740;2023-06-04T03:53:47;100391.55;;;11.15;44.27
74722;BME280;63470;49.826;6.740;2023-06-04T03:56:18;100395.23;;;11.17;44.22
74722;BME280;63470;49.826;6.740;2023-06-04T03:58:48;100393.36;;;11.21;44.21
74722;BME280;63470;49.826;6.740;2023-06-04T04:01:19;100396.91;;;11.23;44.23
74722;BME280;63470;49.826;6.740;2023-06-04T04:03:52;100396.84;;;11.27;44.23
74722;BME280;63470;49.826;6.740;2023-06-04T04:06:23;100398.70;;;11.29;44.23
74722;BME280;63470;49.826;6.740;2023-06-04T04:08:50;100394.92;;;11.32;44.22
74722;BME280;63470;49.826;6.740;2023-06-04T04:11:21;100399.23;;;11.36;44.20
74722;BME280;63470;49.826;6.740;2023-06-04T04:13:56;100401.35;;;11.39;44.20
74722;BME280;63470;49.826;6.740;2023-06-04T04:16:21;100403.72;;;11.41;44.24
74722;BME280;63470;49.826;6.740;2023-06-04T04:18:52;100397.37;;;11.45;44.24
74722;BME280;63470;49.826;6.740;2023-06-04T04:21:22;100397.05;;;11.48;44.22
74722;BME280;63470;49.826;6.740;2023-06-04T04:23:55;100402.94;;;11.51;44.23
74722;BME280;63470;49.826;6.740;2023-06-04T04:26:28;100404.92;;;11.57;44.17
74722;BME280;63470;49.826;6.740;2023-06-04T04:28:58;100407.02;;;11.64;44.12
74722;BME280;63470;49.826;6.740;2023-06-04T04:31:27;100408.10;;;11.70;44.09
74722;BME280;63470;49.826;6.740;2023-06-04T04:33:56;100413.95;;;11.80;44.01
74722;BME280;63470;49.826;6.740;2023-06-04T04:36:29;100415.30;;;11.89;43.94
74722;BME280;63470;49.826;6.740;2023-06-04T04:39:01;100412.58;;;11.96;43.88
74722;BME280;63470;49.826;6.740;2023-06-04T04:41:27;100409.82;;;12.03;43.87
74722;BME280;63470;49.826;6.740;2023-06-04T04:44:04;100412.36;;;12.12;43.83
74722;BME280;63470;49.826;6.740;2023-06-04T04:46:28;100415.96;;;12.19;43.83
74722;BME280;63470;49.826;6.740;2023-06-04T04:48:58;100417.42;;;12.28;43.82
74722;BME280;63470;49.826;6.740;2023-06-04T04:51:28;100420.52;;;12.36;43.79
74722;BME280;63470;49.826;6.740;2023-06-04T04:54:01;100416.88;;;12.48;43.68
74722;BME280;63470;49.826;6.740;2023-06-04T04:56:32;100425.48;;;12.62;43.55
74722;BME280;63470;49.826;6.740;2023-06-04T04:59:00;100424.77;;;12.73;43.51
74722;BME280;63470;49.826;6.740;2023-06-04T05:01:30;100425.49;;;12.82;43.49
74722;BME280;63470;49.826;6.740;2023-06-04T05:04:01;100425.23;;;12.93;43.46
74722;BME280;63470;49.826;6.740;2023-06-04T05:06:31;100422.49;;;13.06;43.42
74722;BME280;63470;49.826;6.740;2023-06-04T05:09:02;100420.06;;;13.17;43.37
74722;BME280;63470;49.826;6.740;2023-06-04T05:11:32;100424.94;;;13.32;43.30
74722;BME280;63470;49.826;6.740;2023-06-04T05:14:03;100427.25;;;13.46;43.19
74722;BME280;63470;49.826;6.740;2023-06-04T05:16:36;100432.62;;;13.60;43.13
74722;BME280;63470;49.826;6.740;2023-06-04T05:19:04;100426.50;;;13.73;43.10
74722;BME280;63470;49.826;6.740;2023-06-04T05:21:34;100432.10;;;13.87;43.06
74722;BME280;63470;49.826;6.740;2023-06-04T05:24:08;100430.56;;;14.01;43.00
74722;BME280;63470;49.826;6.740;2023-06-04T05:26:40;100427.45;;;14.14;42.95
74722;BME280;63470;49.826;6.740;2023-06-04T05:29:06;100428.08;;;14.29;42.90
74722;BME280;63470;49.826;6.740;2023-06-04T05:31:37;100426.17;;;14.44;42.84
74722;BME280;63470;49.826;6.740;2023-06-04T05:34:08;100429.78;;;14.59;42.78
74722;BME280;63470;49.826;6.740;2023-06-04T05:36:40;100426.98;;;14.75;42.70
74722;BME280;63470;49.826;6.740;2023-06-04T05:39:12;100428.07;;;15.26;42.21
74722;BME280;63470;49.826;6.740;2023-06-04T05:41:42;100423.20;;;16.51;40.74
74722;BME280;63470;49.826;6.740;2023-06-04T05:44:10;100420.64;;;17.54;39.88
74722;BME280;63470;49.826;6.740;2023-06-04T05:46:41;100416.47;;;18.47;39.44
74722;BME280;63470;49.826;6.740;2023-06-04T05:49:12;100415.00;;;19.13;39.38
74722;BME280;63470;49.826;6.740;2023-06-04T05:51:42;100415.02;;;19.81;39.29
74722;BME280;63470;49.826;6.740;2023-06-04T05:54:13;100411.30;;;20.47;39.11
74722;BME280;63470;49.826;6.740;2023-06-04T05:56:43;100417.31;;;21.05;38.89
74722;BME280;63470;49.826;6.740;2023-06-04T05:59:14;100421.56;;;21.41;38.86
74722;BME280;63470;49.826;6.740;2023-06-04T06:01:44;100420.84;;;21.73;38.91
74722;BME280;63470;49.826;6.740;2023-06-04T06:04:16;100425.73;;;22.10;38.88
74722;BME280;63470;49.826;6.740;2023-06-04T06:06:49;100428.56;;;22.16;39.04
74722;BME280;63470;49.826;6.740;2023-06-04T06:09:17;100435.16;;;22.26;39.12
74722;BME280;63470;49.826;6.740;2023-06-04T06:11:46;100435.36;;;22.33;39.23
74722;BME280;63470;49.826;6.740;2023-06-04T06:14:19;100432.03;;;22.55;39.00
74722;BME280;63470;49.826;6.740;2023-06-04T06:16:48;100430.98;;;22.62;39.06
74722;BME280;63470;49.826;6.740;2023-06-04T06:19:18;100426.16;;;22.50;39.32
74722;BME280;63470;49.826;6.740;2023-06-04T06:21:48;100428.59;;;22.60;39.46
74722;BME280;63470;49.826;6.740;2023-06-04T06:24:18;100428.88;;;22.59;39.53
74722;BME280;63470;49.826;6.740;2023-06-04T06:26:49;100429.48;;;22.79;39.18
74722;BME280;63470;49.826;6.740;2023-06-04T06:29:19;100431.59;;;22.87;38.85
74722;BME280;63470;49.826;6.740;2023-06-04T06:31:50;100433.56;;;22.98;38.47
74722;BME280;63470;49.826;6.740;2023-06-04T06:34:20;100431.22;;;22.77;38.45
74722;BME280;63470;49.826;6.740;2023-06-04T06:36:51;100437.39;;;22.59;38.42
74722;BME280;63470;49.826;6.740;2023-06-04T06:39:21;100444.03;;;22.44;38.64
74722;BME280;63470;49.826;6.740;2023-06-04T06:41:52;100449.65;;;22.33;38.70
74722;BME280;63470;49.826;6.740;2023-06-04T06:44:22;100450.16;;;22.33;38.53
74722;BME280;63470;49.826;6.740;2023-06-04T06:46:53;100453.66;;;22.38;38.26
74722;BME280;63470;49.826;6.740;2023-06-04T06:49:23;100447.86;;;22.25;38.20
74722;BME280;63470;49.826;6.740;2023-06-04T06:51:53;100449.10;;;22.06;38.32
74722;BME280;63470;49.826;6.740;2023-06-04T06:54:24;100447.58;;;21.97;38.36
74722;BME280;63470;49.826;6.740;2023-06-04T06:56:54;100451.12;;;22.26;37.87
74722;BME280;63470;49.826;6.740;2023-06-04T06:59:25;100450.17;;;22.75;37.25
74722;BME280;63470;49.826;6.740;2023-06-04T07:01:55;100449.95;;;23.00;37.03
74722;BME280;63470;49.826;6.740;2023-06-04T07:04:27;100445.95;;;23.21;36.76
74722;BME280;63470;49.826;6.740;2023-06-04T07:06:56;100441.41;;;23.42;36.50
74722;BME280;63470;49.826;6.740;2023-06-04T07:09:26;100438.75;;;23.47;36.47
74722;BME280;63470;49.826;6.740;2023-06-04T07:11:57;100436.72;;;23.62;36.27
74722;BME280;63470;49.826;6.740;2023-06-04T07:14:27;100437.53;;;23.49;36.39
74722;BME280;63470;49.826;6.740;2023-06-04T07:16:57;100431.88;;;22.94;37.10
74722;BME280;63470;49.826;6.740;2023-06-04T07:19:28;100436.36;;;22.53;37.63
74722;BME280;63470;49.826;6.740;2023-06-04T07:21:58;100438.90;;;22.40;37.89
74722;BME280;63470;49.826;6.740;2023-06-04T07:24:29;100433.61;;;22.44;37.81
74722;BME280;63470;49.826;6.740;2023-06-04T07:26:59;100435.27;;;22.38;37.91
74722;BME280;63470;49.826;6.740;2023-06-04T07:29:29;100438.66;;;22.50;37.96
74722;BME280;63470;49.826;6.740;2023-06-04T07:32:00;100433.52;;;23.00;37.35
74722;BME280;63470;49.826;6.740;2023-06-04T07:34:31;100437.36;;;23.35;36.90
74722;BME280;63470;49.826;6.740;2023-06-04T07:37:01;100440.12;;;23.18;37.29
74722;BME280;63470;49.826;6.740;2023-06-04T07:39:32;100437.56;;;23.18;37.46
74722;BME280;63470;49.826;6.740;2023-06-04T07:42:04;100436.98;;;23.54;37.16
74722;BME280;63470;49.826;6.740;2023-06-04T07:44:32;100433.41;;;24.26;36.42
74722;BME280;63470;49.826;6.740;2023-06-04T07:47:03;100435.48;;;24.86;35.92
74722;BME280;63470;49.826;6.740;2023-06-04T07:49:33;100436.47;;;25.19;35.76
74722;BME280;63470;49.826;6.740;2023-06-04T07:52:04;100435.23;;;25.37;35.79
74722;BME280;63470;49.826;6.740;2023-06-04T07:54:35;100437.70;;;25.68;35.70
74722;BME280;63470;49.826;6.740;2023-06-04T07:57:05;100436.70;;;25.92;35.68
74722;BME280;63470;49.826;6.740;2023-06-04T07:59:35;100436.52;;;26.17;35.70
74722;BME280;63470;49.826;6.740;2023-06-04T08:02:06;100435.74;;;26.35;35.80
74722;BME280;63470;49.826;6.740;2023-06-04T08:04:36;100431.59;;;26.53;35.94
74722;BME280;63470;49.826;6.740;2023-06-04T08:07:07;100431.82;;;26.77;35.99
74722;BME280;63470;49.826;6.740;2023-06-04T08:09:37;100427.08;;;26.75;36.25
74722;BME280;63470;49.826;6.740;2023-06-04T08:12:07;100426.27;;;26.87;36.46
74722;BME280;63470;49.826;6.740;2023-06-04T08:14:38;100420.11;;;26.94;36.67
74722;BME280;63470;49.826;6.740;2023-06-04T08:17:08;100415.44;;;27.10;36.72
74722;BME280;63470;49.826;6.740;2023-06-04T08:19:38;100420.27;;;27.21;36.81
74722;BME280;63470;49.826;6.740;2023-06-04T08:22:12;100416.20;;;27.18;37.01
74722;BME280;63470;49.826;6.740;2023-06-04T08:24:39;100417.78;;;27.32;37.12
74722;BME280;63470;49.826;6.740;2023-06-04T08:27:10;100413.92;;;27.60;36.99
74722;BME280;63470;49.826;6.740;2023-06-04T08:29:41;100415.84;;;27.70;37.07
74722;BME280;63470;49.826;6.740;2023-06-04T08:32:11;100419.47;;;27.77;37.20
74722;BME280;63470;49.826;6.740;2023-06-04T08:34:41;100411.44;;;27.91;37.13
74722;BME280;63470;49.826;6.740;2023-06-04T08:37:11;100406.87;;;27.87;37.29
74722;BME280;63470;49.826;6.740;2023-06-04T08:39:43;100410.68;;;27.98;37.37
74722;BME280;63470;49.826;6.740;2023-06-04T08:42:30;100410.49;;;27.92;37.58
74722;BME280;63470;49.826;6.740;2023-06-04T08:44:43;100412.08;;;28.11;37.42
74722;BME280;63470;49.826;6.740;2023-06-04T08:47:15;100407.52;;;28.13;37.49
74722;BME280;63470;49.826;6.740;2023-06-04T08:49:46;100407.85;;;28.18;37.55
74722;BME280;63470;49.826;6.740;2023-06-04T08:52:14;100409.39;;;28.14;37.62
74722;BME280;63470;49.826;6.740;2023-06-04T08:54:47;100416.27;;;28.06;37.84
74722;BME280;63470;49.826;6.740;2023-06-04T08:57:16;100413.27;;;28.22;37.72
74722;BME280;63470;49.826;6.740;2023-06-04T08:59:47;100420.41;;;28.40;37.65
74722;BME280;63470;49.826;6.740;2023-06-04T09:02:17;100414.48;;;28.52;37.50
74722;BME280;63470;49.826;6.740;2023-06-04T09:04:48;100413.73;;;28.62;37.56
74722;BME280;63470;49.826;6.740;2023-06-04T09:07:18;100410.93;;;28.91;37.38
74722;BME280;63470;49.826;6.740;2023-06-04T09:09:49;100409.31;;;29.24;37.12
74722;BME280;63470;49.826;6.740;2023-06-04T09:12:23;100407.66;;;29.37;37.05
74722;BME280;63470;49.826;6.740;2023-06-04T09:14:51;100404.31;;;29.43;37.14
74722;BME280;63470;49.826;6.740;2023-06-04T09:17:21;100405.02;;;29.39;37.28
74722;BME280;63470;49.826;6.740;2023-06-04T09:19:51;100408.42;;;29.48;37.36
74722;BME280;63470;49.826;6.740;2023-06-04T09:22:33;100406.71;;;29.53;37.29
74722;BME280;63470;49.826;6.740;2023-06-04T09:24:56;100407.06;;;29.51;37.36
74722;BME280;63470;49.826;6.740;2023-06-04T09:27:23;100406.98;;;29.18;37.76
74722;BME280;63470;49.826;6.740;2023-06-04T09:29:57;100407.50;;;29.07;37.91
74722;BME280;63470;49.826;6.740;2023-06-04T09:32:26;100403.95;;;29.03;38.02
74722;BME280;63470;49.826;6.740;2023-06-04T09:35:14;100401.88;;;29.18;37.97
74722;BME280;63470;49.826;6.740;2023-06-04T09:37:27;100397.31;;;29.10;38.12
74722;BME280;63470;49.826;6.740;2023-06-04T09:39:56;100397.43;;;28.98;38.28
74722;BME280;63470;49.826;6.740;2023-06-04T09:42:26;100396.95;;;28.87;38.47
74722;BME280;63470;49.826;6.740;2023-06-04T09:45:02;100395.28;;;29.03;38.38
74722;BME280;63470;49.826;6.740;2023-06-04T09:47:42;100403.12;;;29.41;38.05
74722;BME280;63470;49.826;6.740;2023-06-04T09:49:58;100398.10;;;29.53;37.99
74722;BME280;63470;49.826;6.740;2023-06-04T09:52:34;100391.69;;;29.55;37.98
74722;BME280;63470;49.826;6.740;2023-06-04T09:54:59;100392.00;;;29.51;38.07
74722;BME280;63470;49.826;6.740;2023-06-04T09:57:31;100394.92;;;29.47;38.17
74722;BME280;63470;49.826;6.740;2023-06-04T10:00:01;100393.59;;;29.43;38.26
74722;BME280;63470;49.826;6.740;2023-06-04T10:02:31;100385.03;;;29.46;38.30
74722;BME280;63470;49.826;6.740;2023-06-04T10:05:01;100387.67;;;29.48;38.28
74722;BME280;63470;49.826;6.740;2023-06-04T10:07:35;100388.00;;;29.49;38.28
74722;BME280;63470;49.826;6.740;2023-06-04T10:10:03;100385.27;;;29.50;38.31
74722;BME280;63470;49.826;6.740;2023-06-04T10:12:37;100383.88;;;29.75;38.09
74722;BME280;63470;49.826;6.740;2023-06-04T10:15:10;100386.19;;;29.92;37.98
74722;BME280;63470;49.826;6.740;2023-06-04T10:17:35;100381.06;;;29.97;38.02
74722;BME280;63470;49.826;6.740;2023-06-04T10:20:07;100377.64;;;30.16;37.90
74722;BME280;63470;49.826;6.740;2023-06-04T10:22:38;100378.84;;;30.19;37.94
74722;BME280;63470;49.826;6.740;2023-06-04T10:25:06;100375.91;;;30.13;38.09
74722;BME280;63470;49.826;6.740;2023-06-04T10:27:36;100373.28;;;30.39;37.90
74722;BME280;63470;49.826;6.740;2023-06-04T10:30:06;100371.75;;;30.54;37.82
74722;BME280;63470;49.826;6.740;2023-06-04T10:32:36;100380.58;;;30.44;38.02
74722;BME280;63470;49.826;6.740;2023-06-04T10:35:09;100378.94;;;30.47;38.06
74722;BME280;63470;49.826;6.740;2023-06-04T10:37:37;100377.08;;;30.38;38.22
74722;BME280;63470;49.826;6.740;2023-06-04T10:40:08;100373.53;;;30.24;38.36
74722;BME280;63470;49.826;6.740;2023-06-04T10:42:40;100373.41;;;30.32;38.34
74722;BME280;63470;49.826;6.740;2023-06-04T10:45:10;100375.14;;;30.48;38.18
74722;BME280;63470;49.826;6.740;2023-06-04T10:47:41;100371.77;;;30.58;38.10
74722;BME280;63470;49.826;6.740;2023-06-04T10:50:13;100379.01;;;30.57;38.17
74722;BME280;63470;49.826;6.740;2023-06-04T10:52:54;100364.38;;;30.51;38.29
74722;BME280;63470;49.826;6.740;2023-06-04T10:55:11;100369.94;;;30.47;38.36
74722;BME280;63470;49.826;6.740;2023-06-04T10:57:59;100373.47;;;30.23;38.61
74722;BME280;63470;49.826;6.740;2023-06-04T11:00:13;100373.98;;;30.24;38.59
74722;BME280;63470;49.826;6.740;2023-06-04T11:02:52;100374.53;;;30.34;38.50
74722;BME280;63470;49.826;6.740;2023-06-04T11:05:13;100367.69;;;30.47;38.38
74722;BME280;63470;49.826;6.740;2023-06-04T11:07:47;100367.45;;;30.62;38.22
74722;BME280;63470;49.826;6.740;2023-06-04T11:10:15;100373.28;;;30.47;38.41
74722;BME280;63470;49.826;6.740;2023-06-04T11:12:45;100365.33;;;30.50;38.42
74722;BME280;63470;49.826;6.740;2023-06-04T11:15:16;100365.55;;;30.69;38.21
74722;BME280;63470;49.826;6.740;2023-06-04T11:17:56;100369.23;;;30.64;38.29
74722;BME280;63470;49.826;6.740;2023-06-04T11:20:16;100362.20;;;30.73;38.24
74722;BME280;63470;49.826;6.740;2023-06-04T11:22:52;100363.20;;;30.85;38.15
74722;BME280;63470;49.826;6.740;2023-06-04T11:25:16;100351.64;;;30.97;38.07
74722;BME280;63470;49.826;6.740;2023-06-04T11:27:47;100364.06;;;30.76;38.31
74722;BME280;63470;49.826;6.740;2023-06-04T11:30:18;100361.59;;;30.62;38.48
74722;BME280;63470;49.826;6.740;2023-06-04T11:32:49;100361.84;;;30.63;38.48
74722;BME280;63470;49.826;6.740;2023-06-04T11:35:20;100358.30;;;30.79;38.31
74722;BME280;63470;49.826;6.740;2023-06-04T11:37:54;100352.83;;;30.81;38.25
74722;BME280;63470;49.826;6.740;2023-06-04T11:40:21;100349.00;;;30.91;38.23
74722;BME280;63470;49.826;6.740;2023-06-04T11:42:50;100352.39;;;31.01;38.13
74722;BME280;63470;49.826;6.740;2023-06-04T11:45:22;100354.56;;;30.93;38.20
74722;BME280;63470;49.826;6.740;2023-06-04T11:47:55;100347.98;;;30.73;38.43
74722;BME280;63470;49.826;6.740;2023-06-04T11:50:23;100348.93;;;30.71;38.48
74722;BME280;63470;49.826;6.740;2023-06-04T11:52:53;100350.38;;;30.77;38.32
74722;BME280;63470;49.826;6.740;2023-06-04T11:55:23;100346.64;;;30.83;38.24
74722;BME280;63470;49.826;6.740;2023-06-04T11:57:53;100350.20;;;30.90;38.09
74722;BME280;63470;49.826;6.740;2023-06-04T12:00:24;100354.93;;;30.73;38.24
74722;BME280;63470;49.826;6.740;2023-06-04T12:02:55;100351.82;;;30.66;38.33
74722;BME280;63470;49.826;6.740;2023-06-04T12:05:31;100347.94;;;30.64;38.31
74722;BME280;63470;49.826;6.740;2023-06-04T12:08:06;100345.59;;;30.73;38.18
74722;BME280;63470;49.826;6.740;2023-06-04T12:10:29;100337.85;;;30.93;37.97
74722;BME280;63470;49.826;6.740;2023-06-04T12:12:56;100339.88;;;31.14;37.70
74722;BME280;63470;49.826;6.740;2023-06-04T12:15:27;100341.05;;;31.09;37.72
74722;BME280;63470;49.826;6.740;2023-06-04T12:17:57;100338.31;;;30.97;37.83
74722;BME280;63470;49.826;6.740;2023-06-04T12:20:38;100340.02;;;31.02;37.74
74722;BME280;63470;49.826;6.740;2023-06-04T12:22:58;100338.22;;;31.19;37.56
74722;BME280;63470;49.826;6.740;2023-06-04T12:25:29;100335.12;;;31.31;37.43
74722;BME280;63470;49.826;6.740;2023-06-04T12:28:00;100330.51;;;31.31;37.41
74722;BME280;63470;49.826;6.740;2023-06-04T12:30:38;100326.86;;;31.42;37.31
74722;BME280;63470;49.826;6.740;2023-06-04T12:33:01;100330.09;;;31.42;37.36
74722;BME280;63470;49.826;6.740;2023-06-04T12:35:32;100341.42;;;31.43;37.35
74722;BME280;63470;49.826;6.740;2023-06-04T12:38:04;100337.33;;;31.59;37.21
74722;BME280;63470;49.826;6.740;2023-06-04T12:40:32;100340.52;;;31.76;37.10
74722;BME280;63470;49.826;6.740;2023-06-04T12:43:03;100337.59;;;31.86;37.03
74722;BME280;63470;49.826;6.740;2023-06-04T12:45:33;100334.08;;;31.72;37.20
74722;BME280;63470;49.826;6.740;2023-06-04T12:48:03;100336.42;;;31.78;37.12
74722;BME280;63470;49.826;6.740;2023-06-04T12:50:34;100328.62;;;31.88;37.02
74722;BME280;63470;49.826;6.740;2023-06-04T12:53:04;100329.08;;;32.05;36.83
74722;BME280;63470;49.826;6.740;2023-06-04T12:55:35;100324.96;;;32.18;36.73
74722;BME280;63470;49.826;6.740;2023-06-04T12:58:05;100328.45;;;32.28;36.72
74722;BME280;63470;49.826;6.740;2023-06-04T13:00:35;100327.63;;;32.24;36.68
74722;BME280;63470;49.826;6.740;2023-06-04T13:03:06;100324.66;;;32.18;36.75
74722;BME280;63470;49.826;6.740;2023-06-04T13:05:36;100326.61;;;32.14;36.76
74722;BME280;63470;49.826;6.740;2023-06-04T13:08:07;100321.59;;;32.19;36.73